Time;durP1;ratioP1;P1;durP2;ratioP2;P2;SDS_P1;SDS_P2;PMS_P1;PMS_P2;Temp;Humidity;BMP_temperature;BMP_pressure;BME280_temperature;BME280_humidity;BME280_pressure;Samples;Min_cycle;Max_cycle;Signal;HPM_P1;HPM_P2
2022/09/17 00:00:59;;;;;;;3.70;0.98;;;13.50;63.80;;;;;;5088051;28;20027;-58
2022/09/17 00:03:25;;;;;;;1.67;0.80;;;13.40;63.80;;;;;;5097632;28;20084;-59
2022/09/17 00:06:02;;;;;;;1.13;1.00;;;13.40;63.90;;;;;;5090888;28;20032;-60
2022/09/17 00:08:28;;;;;;;3.20;0.80;;;13.30;64.10;;;;;;5068405;28;20105;-59
2022/09/17 00:10:54;;;;;;;1.77;1.13;;;13.30;63.90;;;;;;5088724;28;20044;-59
2022/09/17 00:13:19;;;;;;;1.52;0.90;;;13.20;63.80;;;;;;5107947;28;20112;-59
2022/09/17 00:15:46;;;;;;;0.82;0.63;;;13.20;64.00;;;;;;5086197;28;20038;-59
2022/09/17 00:18:13;;;;;;;1.75;0.80;;;13.10;64.80;;;;;;5088028;28;20032;-58
2022/09/17 00:20:44;;;;;;;1.55;0.82;;;13.10;64.20;;;;;;5083434;28;20016;-59
2022/09/17 00:23:11;;;;;;;2.75;1.45;;;13.10;64.20;;;;;;5079060;28;20052;-59
2022/09/17 00:25:40;;;;;;;1.13;0.90;;;13.00;64.20;;;;;;5074501;28;20032;-61
2022/09/17 00:28:06;;;;;;;1.83;0.90;;;13.00;64.30;;;;;;5107776;28;20425;-59
2022/09/17 00:30:32;;;;;;;2.60;1.25;;;13.00;64.30;;;;;;5072636;28;20060;-58
2022/09/17 00:32:58;;;;;;;4.00;0.90;;;13.00;64.40;;;;;;5081948;28;20032;-59
2022/09/17 00:35:24;;;;;;;1.55;0.93;;;12.90;64.50;;;;;;5076807;28;20020;-59
2022/09/17 00:37:51;;;;;;;1.40;0.85;;;12.90;64.60;;;;;;5099932;28;20032;-59
2022/09/17 00:40:18;;;;;;;4.53;1.40;;;12.90;64.80;;;;;;5080092;28;20056;-59
2022/09/17 00:42:44;;;;;;;2.67;1.40;;;12.90;65.10;;;;;;5097394;28;20028;-59
2022/09/17 00:45:10;;;;;;;2.08;0.90;;;12.90;65.10;;;;;;5086940;28;20087;-60
2022/09/17 00:47:52;;;;;;;1.25;1.00;;;12.90;65.00;;;;;;5101741;28;20036;-60
2022/09/17 00:50:26;;;;;;;0.95;0.85;;;12.90;65.30;;;;;;5094467;28;20097;-59
2022/09/17 00:53:00;;;;;;;1.00;0.90;;;12.90;65.00;;;;;;5075795;28;20028;-60
2022/09/17 00:55:37;;;;;;;;;;;12.90;65.30;;;;;;5080179;28;20021;-59
2022/09/17 00:58:07;;;;;;;1.58;0.73;;;12.90;65.30;;;;;;5107405;28;19934;-60
2022/09/17 01:00:33;;;;;;;2.55;0.90;;;12.90;65.00;;;;;;5083520;28;20078;-59
2022/09/17 01:02:59;;;;;;;1.60;0.90;;;12.80;65.30;;;;;;5097767;28;20047;-59
2022/09/17 01:05:50;;;;;;;0.90;0.77;;;12.80;65.60;;;;;;5088164;28;20032;-59
2022/09/17 01:08:35;;;;;;;0.70;0.70;;;12.80;65.90;;;;;;5067612;28;20150;-59
2022/09/17 01:11:10;;;;;;;1.85;0.80;;;12.90;66.00;;;;;;5083768;28;20051;-58
2022/09/17 01:13:51;;;;;;;9.02;0.80;;;12.90;65.70;;;;;;5075228;28;20052;-60
2022/09/17 01:16:32;;;;;;;1.20;0.65;;;13.00;66.30;;;;;;5084579;28;20024;-59
2022/09/17 01:19:21;;;;;;;1.75;0.90;;;13.00;66.00;;;;;;5070195;28;20036;-60
2022/09/17 01:22:00;;;;;;;2.00;0.70;;;13.00;65.70;;;;;;5085893;28;20456;-60
2022/09/17 01:25:12;;;;;;;0.98;0.80;;;13.00;65.60;;;;;;5092837;28;20029;-60
2022/09/17 01:28:23;;;;;;;0.85;0.75;;;13.00;65.60;;;;;;5069094;28;20407;-59
2022/09/17 01:30:59;;;;;;;2.45;1.02;;;13.10;65.50;;;;;;5034123;28;20401;-58
2022/09/17 01:33:51;;;;;;;1.83;0.90;;;13.10;65.20;;;;;;5048476;28;20071;-59
2022/09/17 01:36:19;;;;;;;1.40;0.70;;;13.10;65.20;;;;;;5046700;28;20184;-59
2022/09/17 01:39:00;;;;;;;2.40;0.80;;;13.10;65.00;;;;;;5051109;28;20151;-59
2022/09/17 01:41:52;;;;;;;2.63;0.95;;;13.10;65.10;;;;;;5060460;28;20111;-59
2022/09/17 01:44:33;;;;;;;1.52;0.80;;;13.10;64.70;;;;;;5056800;28;20125;-59
2022/09/17 01:47:15;;;;;;;2.45;1.00;;;13.00;64.40;;;;;;5044153;28;20108;-59
2022/09/17 01:49:41;;;;;;;5.25;1.13;;;13.00;64.00;;;;;;5053368;28;20077;-59
2022/09/17 01:52:09;;;;;;;2.22;0.93;;;13.00;64.10;;;;;;5054118;28;20049;-59
2022/09/17 01:54:42;;;;;;;4.97;1.00;;;12.90;64.20;;;;;;5054758;28;20104;-59
2022/09/17 01:57:20;;;;;;;5.63;1.50;;;12.90;64.50;;;;;;5063960;28;20043;-61
2022/09/17 01:59:59;;;;;;;4.07;1.30;;;12.90;64.50;;;;;;5058735;28;20414;-59
2022/09/17 02:02:47;;;;;;;4.18;0.90;;;12.90;64.90;;;;;;5040182;28;20180;-61
2022/09/17 02:05:21;;;;;;;1.98;0.88;;;12.90;64.70;;;;;;5043597;28;20034;-60
2022/09/17 02:07:51;;;;;;;;;;;12.90;64.70;;;;;;5026550;28;20452;-58
2022/09/17 02:10:24;;;;;;;2.80;1.00;;;12.90;64.70;;;;;;5041595;28;19913;-61
2022/09/17 02:12:55;;;;;;;2.03;1.02;;;12.90;64.50;;;;;;5038243;28;20025;-59
2022/09/17 02:15:33;;;;;;;2.78;0.82;;;12.90;64.50;;;;;;5047403;28;20032;-58
2022/09/17 02:18:07;;;;;;;2.13;0.85;;;12.90;64.70;;;;;;5044896;28;20121;-60
2022/09/17 02:20:53;;;;;;;1.02;0.77;;;12.90;64.70;;;;;;5035190;28;20021;-60
2022/09/17 02:23:26;;;;;;;1.52;0.90;;;12.90;64.70;;;;;;5044815;28;20040;-59
2022/09/17 02:26:00;;;;;;;2.47;1.08;;;12.90;64.70;;;;;;5025122;28;20465;-61
2022/09/17 02:28:32;;;;;;;;;;;12.80;64.80;;;;;;5026329;28;20042;-59
2022/09/17 02:30:57;;;;;;;3.88;1.15;;;12.90;65.00;;;;;;5043812;28;19927;-59
2022/09/17 02:33:25;;;;;;;4.63;1.00;;;12.80;64.40;;;;;;5060197;28;20100;-59
2022/09/17 02:35:51;;;;;;;3.10;0.90;;;12.80;64.60;;;;;;5030479;28;20034;-61
2022/09/17 02:38:28;;;;;;;1.27;0.70;;;12.80;64.80;;;;;;5061183;28;20119;-59
2022/09/17 02:41:16;;;;;;;5.07;0.98;;;12.80;65.20;;;;;;5042470;28;20025;-59
2022/09/17 02:43:57;;;;;;;2.45;0.90;;;12.80;65.50;;;;;;5059563;28;20032;-60
2022/09/17 02:46:44;;;;;;;5.57;0.95;;;12.80;65.20;;;;;;5036570;28;20056;-59
2022/09/17 02:49:41;;;;;;;2.58;1.05;;;12.80;65.40;;;;;;5080028;28;20052;-58
2022/09/17 02:52:39;;;;;;;4.43;0.80;;;12.80;65.70;;;;;;5079895;28;20037;-60
2022/09/17 02:55:05;;;;;;;2.25;0.80;;;12.80;65.90;;;;;;5079879;28;20111;-59
2022/09/17 02:57:44;;;;;;;1.70;1.20;;;12.80;65.80;;;;;;5080166;28;20029;-60
2022/09/17 03:00:16;;;;;;;2.38;1.00;;;12.80;66.20;;;;;;5078621;28;20092;-58
2022/09/17 03:02:49;;;;;;;3.17;0.98;;;12.80;65.70;;;;;;5084791;28;20056;-58
2022/09/17 03:05:18;;;;;;;2.40;0.98;;;12.80;65.60;;;;;;5076409;28;20060;-59
2022/09/17 03:07:43;;;;;;;6.13;1.00;;;12.80;65.70;;;;;;5090541;28;20038;-59
2022/09/17 03:10:09;;;;;;;4.65;1.02;;;12.80;65.80;;;;;;5089087;28;20052;-58
2022/09/17 03:12:36;;;;;;;4.22;1.00;;;12.80;65.90;;;;;;5085427;28;20021;-58
2022/09/17 03:15:02;;;;;;;3.75;0.90;;;12.80;65.80;;;;;;5081669;28;20082;-59
2022/09/17 03:17:28;;;;;;;3.03;0.90;;;12.80;65.80;;;;;;5086258;28;20162;-58
2022/09/17 03:19:54;;;;;;;2.00;1.00;;;12.80;65.80;;;;;;5094941;28;20032;-59
2022/09/17 03:22:19;;;;;;;5.82;1.60;;;12.80;65.50;;;;;;5085011;28;20035;-60
2022/09/17 03:24:45;;;;;;;2.88;1.33;;;12.80;65.30;;;;;;5096221;28;20024;-58
2022/09/17 03:27:11;;;;;;;3.70;1.30;;;12.80;65.30;;;;;;5103870;28;20111;-59
2022/09/17 03:29:36;;;;;;;1.88;1.10;;;12.80;65.40;;;;;;5070013;28;20025;-58
2022/09/17 03:32:02;;;;;;;4.85;1.15;;;12.80;65.40;;;;;;5076003;28;20037;-58
2022/09/17 03:34:28;;;;;;;6.22;1.35;;;12.80;65.30;;;;;;5089881;28;20050;-58
2022/09/17 03:36:54;;;;;;;3.75;1.08;;;12.80;64.80;;;;;;5076517;28;20028;-57
2022/09/17 03:39:19;;;;;;;4.32;1.15;;;12.70;64.70;;;;;;5070019;28;20048;-60
2022/09/17 03:41:45;;;;;;;5.93;1.42;;;12.70;64.90;;;;;;5103946;28;20021;-58
2022/09/17 03:44:11;;;;;;;3.70;1.10;;;12.60;65.10;;;;;;5070590;28;20037;-60
2022/09/17 03:46:36;;;;;;;4.53;1.25;;;12.60;65.30;;;;;;5103079;28;20024;-59
2022/09/17 03:49:03;;;;;;;4.05;1.40;;;12.60;65.40;;;;;;5086375;28;20127;-59
2022/09/17 03:51:29;;;;;;;6.88;1.20;;;12.60;65.40;;;;;;5081380;28;20041;-58
2022/09/17 03:53:54;;;;;;;5.85;1.30;;;12.50;65.30;;;;;;5088166;28;20044;-58
2022/09/17 03:56:20;;;;;;;4.03;1.10;;;12.50;65.30;;;;;;5085726;28;20036;-59
2022/09/17 03:58:46;;;;;;;4.55;1.10;;;12.50;65.30;;;;;;5090374;28;20086;-58
2022/09/17 04:01:11;;;;;;;4.32;1.45;;;12.50;65.20;;;;;;5081339;28;20035;-59
2022/09/17 04:03:37;;;;;;;4.93;1.20;;;12.40;65.20;;;;;;5085716;28;20038;-60
2022/09/17 04:06:03;;;;;;;3.80;1.33;;;12.40;65.50;;;;;;5092663;28;20088;-60
2022/09/17 04:08:28;;;;;;;5.10;1.10;;;12.40;65.50;;;;;;5091239;28;20033;-60
2022/09/17 04:10:54;;;;;;;5.38;1.25;;;12.40;65.50;;;;;;5087842;28;20040;-58
2022/09/17 04:13:20;;;;;;;7.90;1.55;;;12.40;65.40;;;;;;5082913;28;20082;-59
2022/09/17 04:15:46;;;;;;;7.00;1.55;;;12.40;65.10;;;;;;5079276;28;20029;-59
2022/09/17 04:18:12;;;;;;;5.32;1.67;;;12.40;65.20;;;;;;5095219;28;20029;-59
2022/09/17 04:20:38;;;;;;;6.05;1.55;;;12.40;65.30;;;;;;5093071;28;20028;-60
2022/09/17 04:23:05;;;;;;;3.67;1.10;;;12.40;65.20;;;;;;5080857;28;20029;-61
2022/09/17 04:25:32;;;;;;;5.25;1.35;;;12.40;65.20;;;;;;5089012;28;20040;-58
2022/09/17 04:27:58;;;;;;;8.07;1.50;;;12.40;65.50;;;;;;5098735;28;20052;-60
2022/09/17 04:30:24;;;;;;;4.93;1.30;;;12.30;65.30;;;;;;5088944;28;20067;-59
2022/09/17 04:32:49;;;;;;;6.47;1.23;;;12.30;65.50;;;;;;5096849;28;20066;-58
2022/09/17 04:35:15;;;;;;;3.60;1.20;;;12.30;65.70;;;;;;5103852;28;20024;-58
2022/09/17 04:37:41;;;;;;;3.50;1.30;;;12.30;65.80;;;;;;5094448;28;20020;-58
2022/09/17 04:40:07;;;;;;;4.00;1.30;;;12.30;65.60;;;;;;5108743;28;20001;-58
2022/09/17 04:42:33;;;;;;;6.32;1.35;;;12.30;65.50;;;;;;5114212;28;20055;-58
2022/09/17 04:44:59;;;;;;;5.22;1.33;;;12.30;65.50;;;;;;5108618;28;20028;-58
2022/09/17 04:47:25;;;;;;;4.50;1.40;;;12.30;65.30;;;;;;5085902;28;20050;-60
2022/09/17 04:49:50;;;;;;;7.22;1.70;;;12.30;65.30;;;;;;5093804;28;20048;-59
2022/09/17 04:52:16;;;;;;;5.45;1.42;;;12.30;65.30;;;;;;5077653;28;20052;-60
2022/09/17 04:54:42;;;;;;;6.88;1.83;;;12.30;65.20;;;;;;5105286;28;20434;-59
2022/09/17 04:57:09;;;;;;;4.15;1.50;;;12.30;65.40;;;;;;5076151;28;20048;-59
2022/09/17 04:59:35;;;;;;;3.97;1.50;;;12.30;65.40;;;;;;5086913;28;20056;-61
2022/09/17 05:02:00;;;;;;;6.20;1.42;;;12.30;65.50;;;;;;5091099;28;20824;-59
2022/09/17 05:04:26;;;;;;;6.57;1.50;;;12.30;65.50;;;;;;5086050;28;20032;-58
2022/09/17 05:06:51;;;;;;;9.27;1.88;;;12.20;65.60;;;;;;5084092;28;20040;-59
2022/09/17 05:09:17;;;;;;;7.45;1.80;;;12.20;65.70;;;;;;5085689;28;20044;-58
2022/09/17 05:11:43;;;;;;;9.88;1.60;;;12.20;65.80;;;;;;5074206;28;20044;-60
2022/09/17 05:14:08;;;;;;;5.13;1.50;;;12.20;65.60;;;;;;5074707;28;20074;-60
2022/09/17 05:16:34;;;;;;;6.53;1.08;;;12.20;65.40;;;;;;5075906;28;20064;-60
2022/09/17 05:19:00;;;;;;;7.88;1.80;;;12.20;65.40;;;;;;5070914;28;20044;-59
2022/09/17 05:21:25;;;;;;;7.82;1.90;;;12.20;65.40;;;;;;5088694;28;20029;-59
2022/09/17 05:23:51;;;;;;;3.47;1.23;;;12.20;65.20;;;;;;5087284;28;20029;-59
2022/09/17 05:26:17;;;;;;;5.53;1.40;;;12.20;65.40;;;;;;5090961;28;20059;-59
2022/09/17 05:28:43;;;;;;;7.53;1.50;;;12.20;65.20;;;;;;5091817;28;20112;-59
2022/09/17 05:31:08;;;;;;;7.80;1.73;;;12.20;65.30;;;;;;5092111;28;20071;-59
2022/09/17 05:33:34;;;;;;;7.35;1.50;;;12.20;65.40;;;;;;5092908;28;20036;-59
2022/09/17 05:36:00;;;;;;;6.70;1.73;;;12.20;65.20;;;;;;5080743;28;20059;-59
2022/09/17 05:38:26;;;;;;;7.43;1.60;;;12.20;65.30;;;;;;5086918;28;20029;-60
2022/09/17 05:40:51;;;;;;;7.38;1.60;;;12.20;65.30;;;;;;5094752;28;20099;-58
2022/09/17 05:43:17;;;;;;;7.25;1.45;;;12.20;65.40;;;;;;5090120;28;20063;-59
2022/09/17 05:45:43;;;;;;;9.30;1.70;;;12.20;65.50;;;;;;5085891;28;20084;-61
2022/09/17 05:48:13;;;;;;;6.50;1.65;;;12.20;65.80;;;;;;5086280;28;20044;-59
2022/09/17 05:50:40;;;;;;;5.80;1.30;;;12.10;66.10;;;;;;5019034;28;20111;-60
2022/09/17 05:53:11;;;;;;;7.40;2.28;;;12.20;66.00;;;;;;5085749;28;20081;-60
2022/09/17 05:55:38;;;;;;;14.50;1.73;;;12.10;65.90;;;;;;5077649;28;20034;-61
2022/09/17 05:58:12;;;;;;;7.07;1.83;;;12.20;66.00;;;;;;5091938;28;20028;-58
2022/09/17 06:00:40;;;;;;;5.38;1.52;;;12.20;65.70;;;;;;5082755;28;20056;-59
2022/09/17 06:03:05;;;;;;;5.10;1.50;;;12.20;65.60;;;;;;5085469;28;20025;-58
2022/09/17 06:05:31;;;;;;;4.78;1.40;;;12.20;66.00;;;;;;5069627;28;20052;-59
2022/09/17 06:07:57;;;;;;;8.85;1.65;;;12.20;65.70;;;;;;5082126;28;20041;-59
2022/09/17 06:10:22;;;;;;;7.43;1.60;;;12.20;65.60;;;;;;5098094;28;20042;-59
2022/09/17 06:12:55;;;;;;;8.73;1.73;;;12.20;65.50;;;;;;5086169;28;20028;-59
2022/09/17 06:15:21;;;;;;;3.60;1.35;;;12.20;65.60;;;;;;5075676;28;20035;-59
2022/09/17 06:17:46;;;;;;;8.88;1.58;;;12.20;65.70;;;;;;5086282;28;20033;-60
2022/09/17 06:20:12;;;;;;;9.02;1.55;;;12.30;65.70;;;;;;5103820;28;20030;-59
2022/09/17 06:22:37;;;;;;;5.78;1.98;;;12.30;65.50;;;;;;5088295;28;20105;-59
2022/09/17 06:25:03;;;;;;;6.60;1.67;;;12.30;65.30;;;;;;5100008;28;20036;-58
2022/09/17 06:27:33;;;;;;;11.63;1.63;;;12.30;65.40;;;;;;5094728;28;20054;-59
2022/09/17 06:29:59;;;;;;;6.88;1.80;;;12.30;65.30;;;;;;5103679;28;20029;-59
2022/09/17 06:32:26;;;;;;;4.50;1.23;;;12.30;65.30;;;;;;5085014;28;20520;-61
2022/09/17 06:34:52;;;;;;;4.43;1.25;;;12.40;65.30;;;;;;5100943;28;20040;-58
2022/09/17 06:37:18;;;;;;;8.55;1.80;;;12.40;65.40;;;;;;5083775;28;20035;-59
2022/09/17 06:39:44;;;;;;;3.35;1.30;;;12.40;65.20;;;;;;5103353;28;20052;-59
2022/09/17 06:42:11;;;;;;;5.22;1.38;;;12.40;65.10;;;;;;5077312;28;20025;-59
2022/09/17 06:44:37;;;;;;;9.13;1.40;;;12.40;65.10;;;;;;5102532;28;20024;-59
2022/09/17 06:47:03;;;;;;;5.07;1.55;;;12.40;65.10;;;;;;5079269;28;20198;-59
2022/09/17 06:49:30;;;;;;;6.63;1.40;;;12.50;65.10;;;;;;5079130;28;20048;-60
2022/09/17 06:51:55;;;;;;;6.85;1.38;;;12.50;64.90;;;;;;5090542;28;20105;-59
2022/09/17 06:54:21;;;;;;;5.38;1.60;;;12.50;64.90;;;;;;5085332;28;20032;-60
2022/09/17 06:56:47;;;;;;;7.00;1.70;;;12.60;64.90;;;;;;5072964;28;20032;-58
2022/09/17 06:59:13;;;;;;;12.38;1.85;;;12.60;64.70;;;;;;5090901;28;20028;-60
2022/09/17 07:01:38;;;;;;;6.22;1.33;;;12.60;64.50;;;;;;5084276;28;20441;-60
2022/09/17 07:04:04;;;;;;;6.45;1.30;;;12.60;64.40;;;;;;5085861;28;20030;-59
2022/09/17 07:06:30;;;;;;;7.30;1.55;;;12.60;64.40;;;;;;5110652;28;20012;-59
2022/09/17 07:08:56;;;;;;;5.85;1.25;;;12.60;64.50;;;;;;5093021;28;20131;-59
2022/09/17 07:11:22;;;;;;;9.82;1.65;;;12.70;64.20;;;;;;5089110;28;20051;-60
2022/09/17 07:13:49;;;;;;;6.95;1.90;;;12.60;64.00;;;;;;5091031;28;20020;-59
2022/09/17 07:16:16;;;;;;;7.68;1.25;;;12.60;64.10;;;;;;5085025;28;20043;-59
2022/09/17 07:18:42;;;;;;;7.07;1.48;;;12.60;65.00;;;;;;5095223;28;20024;-60
2022/09/17 07:21:09;;;;;;;5.85;1.35;;;12.60;64.40;;;;;;5089436;28;20021;-58
2022/09/17 07:23:36;;;;;;;5.60;1.88;;;12.60;64.30;;;;;;5097491;28;20099;-59
2022/09/17 07:26:13;;;;;;;7.90;1.33;;;12.60;64.50;;;;;;5078930;28;20047;-59
2022/09/17 07:28:39;;;;;;;5.90;1.38;;;12.60;65.00;;;;;;5073674;28;20024;-60
2022/09/17 07:31:06;;;;;;;6.25;1.35;;;12.60;64.90;;;;;;5069983;28;20099;-59
2022/09/17 07:33:33;;;;;;;7.15;1.73;;;12.60;65.30;;;;;;5098937;28;20059;-60
2022/09/17 07:36:02;;;;;;;4.78;1.45;;;12.60;65.40;;;;;;5083224;28;20040;-62
2022/09/17 07:38:29;;;;;;;10.43;1.75;;;12.70;65.40;;;;;;5084827;28;20025;-60
2022/09/17 07:41:06;;;;;;;10.93;2.08;;;12.70;65.30;;;;;;5095416;28;20047;-60
2022/09/17 07:43:33;;;;;;;10.50;2.10;;;12.70;65.00;;;;;;5077535;28;20135;-60
2022/09/17 07:46:00;;;;;;;7.85;1.70;;;12.70;64.90;;;;;;5102016;28;20085;-62
2022/09/17 07:48:27;;;;;;;6.05;1.40;;;12.70;65.10;;;;;;5077086;28;20076;-59
2022/09/17 07:50:53;;;;;;;9.88;1.70;;;12.80;65.20;;;;;;5024168;28;20654;-60
2022/09/17 07:53:20;;;;;;;7.75;1.45;;;12.80;65.30;;;;;;5089785;28;20029;-59
2022/09/17 07:55:52;;;;;;;8.02;1.60;;;12.70;65.20;;;;;;5074800;28;20024;-58
2022/09/17 07:58:19;;;;;;;6.88;1.35;;;12.70;65.50;;;;;;5070283;28;20077;-58
2022/09/17 08:00:45;;;;;;;6.57;1.70;;;12.70;65.20;;;;;;5080907;28;20092;-61
2022/09/17 08:03:10;;;;;;;6.70;1.27;;;12.60;65.50;;;;;;5082929;28;20054;-61
2022/09/17 08:05:37;;;;;;;5.82;1.45;;;12.60;65.50;;;;;;5089492;28;20047;-61
2022/09/17 08:08:02;;;;;;;3.38;1.25;;;12.60;65.70;;;;;;5085928;28;20035;-60
2022/09/17 08:10:28;;;;;;;6.07;1.52;;;12.60;65.90;;;;;;5080334;28;20041;-60
2022/09/17 08:12:57;;;;;;;4.90;1.25;;;12.60;66.40;;;;;;5084341;28;20024;-59
2022/09/17 08:15:23;;;;;;;4.90;1.15;;;12.60;66.60;;;;;;5082591;28;20075;-59
2022/09/17 08:17:50;;;;;;;2.60;1.17;;;12.50;66.30;;;;;;5077857;28;20036;-60
2022/09/17 08:20:17;;;;;;;9.82;1.70;;;12.60;66.50;;;;;;5079867;28;20055;-58
2022/09/17 08:22:43;;;;;;;4.35;1.13;;;12.60;66.80;;;;;;5077500;28;20039;-59
2022/09/17 08:25:10;;;;;;;9.43;1.95;;;12.60;66.70;;;;;;5077367;28;20119;-59
2022/09/17 08:27:39;;;;;;;4.63;1.27;;;12.60;67.40;;;;;;5089060;28;20032;-58
2022/09/17 08:30:07;;;;;;;5.07;1.10;;;12.60;67.70;;;;;;5080614;28;20156;-58
2022/09/17 08:32:32;;;;;;;4.88;1.20;;;12.60;67.40;;;;;;5071018;28;20066;-60
2022/09/17 08:34:58;;;;;;;4.57;1.48;;;12.60;67.70;;;;;;5074835;28;20482;-58
2022/09/17 08:37:25;;;;;;;4.32;1.00;;;12.70;68.10;;;;;;5076287;28;20058;-58
2022/09/17 08:39:50;;;;;;;2.30;1.00;;;12.70;68.30;;;;;;5083247;28;20025;-59
2022/09/17 08:42:32;;;;;;;3.80;1.17;;;12.80;68.30;;;;;;5085540;28;20035;-59
2022/09/17 08:45:01;;;;;;;2.67;0.95;;;13.00;68.40;;;;;;5069034;28;20025;-59
2022/09/17 08:47:36;;;;;;;3.22;1.08;;;13.10;68.30;;;;;;5082468;28;20021;-58
2022/09/17 08:50:16;;;;;;;4.75;0.80;;;13.20;68.80;;;;;;5089170;28;20067;-58
2022/09/17 08:53:01;;;;;;;3.28;0.90;;;13.40;68.10;;;;;;5020881;28;20112;-58
2022/09/17 08:55:38;;;;;;;1.77;0.70;;;13.50;67.70;;;;;;5080199;28;20448;-59
2022/09/17 08:58:29;;;;;;;2.25;0.80;;;13.60;66.90;;;;;;5084275;28;20370;-60
2022/09/17 09:01:13;;;;;;;1.85;0.77;;;13.70;66.70;;;;;;5071685;28;20033;-57
2022/09/17 09:04:15;;;;;;;1.60;0.70;;;13.70;66.20;;;;;;5077155;28;20028;-58
2022/09/17 09:06:51;;;;;;;2.22;0.47;;;13.80;65.80;;;;;;5061014;28;20397;-59
2022/09/17 09:09:21;;;;;;;1.80;1.00;;;13.70;65.30;;;;;;5056416;28;20075;-59
2022/09/17 09:11:51;;;;;;;1.55;0.70;;;13.70;65.70;;;;;;5066941;28;20036;-59
2022/09/17 09:14:26;;;;;;;2.67;1.02;;;13.70;65.90;;;;;;5058325;28;20101;-60
2022/09/17 09:16:54;;;;;;;1.83;1.00;;;13.60;65.90;;;;;;5056979;28;20048;-58
2022/09/17 09:19:21;;;;;;;2.25;0.68;;;13.60;65.70;;;;;;5068913;28;20455;-60
2022/09/17 09:22:27;;;;;;;1.92;0.80;;;13.60;66.00;;;;;;5059329;28;20045;-59
2022/09/17 09:25:22;;;;;;;2.33;0.80;;;13.70;66.50;;;;;;5054871;28;20037;-59
2022/09/17 09:27:53;;;;;;;3.00;1.10;;;13.90;65.60;;;;;;5051501;28;20052;-59
2022/09/17 09:30:22;;;;;;;1.88;0.80;;;14.00;65.50;;;;;;5059047;28;20032;-60
2022/09/17 09:33:10;;;;;;;2.42;0.70;;;14.00;64.80;;;;;;5094815;28;20025;-59
2022/09/17 09:35:40;;;;;;;2.20;0.75;;;14.10;65.10;;;;;;5055128;28;20029;-60
2022/09/17 09:38:29;;;;;;;3.42;0.70;;;14.10;64.80;;;;;;5058506;28;20854;-60
2022/09/17 09:41:22;;;;;;;2.33;1.00;;;14.20;64.40;;;;;;5056753;28;20115;-61
2022/09/17 09:43:57;;;;;;;2.30;0.90;;;14.20;63.90;;;;;;5076970;28;20448;-59
2022/09/17 09:46:42;;;;;;;2.83;0.80;;;14.10;63.70;;;;;;5080065;28;20037;-59
2022/09/17 09:49:31;;;;;;;4.00;1.13;;;14.10;63.80;;;;;;5082323;28;20055;-59
2022/09/17 09:52:22;;;;;;;3.47;1.20;;;14.10;63.00;;;;;;5020105;28;20504;-59
2022/09/17 09:55:38;;;;;;;3.72;1.20;;;14.00;63.40;;;;;;5084608;28;20029;-61
2022/09/17 09:58:35;;;;;;;3.55;1.00;;;14.00;63.10;;;;;;5063273;28;20036;-60
2022/09/17 10:01:02;;;;;;;2.83;1.30;;;13.90;63.30;;;;;;5061986;28;20044;-61
2022/09/17 10:03:31;;;;;;;5.00;1.33;;;13.90;63.50;;;;;;5066195;28;20028;-59
2022/09/17 10:06:02;;;;;;;5.03;1.17;;;13.80;63.10;;;;;;5065413;28;20017;-59
2022/09/17 10:08:31;;;;;;;5.95;1.40;;;13.80;63.40;;;;;;5096749;28;20044;-59
2022/09/17 10:11:19;;;;;;;6.55;1.33;;;13.80;63.00;;;;;;5088090;28;20119;-59
2022/09/17 10:13:46;;;;;;;6.82;1.40;;;13.80;63.50;;;;;;5077912;28;20028;-59
2022/09/17 10:16:24;;;;;;;3.95;1.40;;;13.70;63.50;;;;;;5085442;28;20034;-58
2022/09/17 10:19:17;;;;;;;4.47;1.35;;;13.70;63.80;;;;;;5068749;28;20028;-58
2022/09/17 10:21:43;;;;;;;4.90;1.30;;;13.70;63.90;;;;;;5078096;28;20024;-61
2022/09/17 10:24:31;;;;;;;5.00;1.48;;;13.70;64.30;;;;;;5080784;28;20028;-59
2022/09/17 10:27:02;;;;;;;3.50;1.40;;;13.70;65.10;;;;;;5087978;28;20035;-59
2022/09/17 10:29:28;;;;;;;5.20;1.77;;;13.90;65.10;;;;;;5080677;28;20024;-59
2022/09/17 10:31:56;;;;;;;7.47;1.80;;;14.00;65.20;;;;;;5072720;28;20044;-58
2022/09/17 10:34:33;;;;;;;5.40;1.45;;;14.10;64.90;;;;;;5076202;28;20081;-58
2022/09/17 10:36:59;;;;;;;4.38;1.15;;;14.20;65.00;;;;;;5079960;28;20034;-58
2022/09/17 10:39:42;;;;;;;8.30;1.52;;;14.30;64.20;;;;;;5073941;28;20052;-59
2022/09/17 10:42:12;;;;;;;4.72;1.40;;;14.40;63.50;;;;;;5080002;28;20079;-59
2022/09/17 10:44:49;;;;;;;6.28;1.33;;;14.60;64.00;;;;;;5084808;28;20020;-58
2022/09/17 10:47:21;;;;;;;7.35;1.88;;;14.70;62.80;;;;;;5068560;28;20029;-60
2022/09/17 10:49:53;;;;;;;5.18;1.40;;;14.70;61.20;;;;;;5074681;28;20075;-59
2022/09/17 10:52:41;;;;;;;4.75;1.45;;;14.80;61.10;;;;;;4991524;28;20074;-60
2022/09/17 10:55:46;;;;;;;10.23;1.30;;;14.70;61.10;;;;;;5071871;28;20044;-58
2022/09/17 10:58:36;;;;;;;5.85;1.30;;;14.80;60.90;;;;;;5069029;28;20050;-59
2022/09/17 11:01:17;;;;;;;5.75;1.23;;;14.80;61.20;;;;;;5067660;28;20032;-59
2022/09/17 11:04:01;;;;;;;9.07;1.67;;;14.90;61.70;;;;;;5068425;28;20025;-60
2022/09/17 11:06:43;;;;;;;3.23;1.17;;;15.00;61.40;;;;;;5072425;28;20505;-60
2022/09/17 11:09:17;;;;;;;3.63;1.27;;;15.10;60.40;;;;;;5075688;28;20298;-59
2022/09/17 11:12:14;;;;;;;2.88;1.05;;;15.20;59.20;;;;;;5078894;28;20036;-58
2022/09/17 11:14:55;;;;;;;6.05;1.40;;;15.20;59.70;;;;;;5078236;28;20029;-59
2022/09/17 11:17:33;;;;;;;3.38;0.90;;;15.10;59.50;;;;;;5078353;28;20092;-58
2022/09/17 11:20:00;;;;;;;2.17;0.80;;;15.00;60.10;;;;;;5076674;28;20429;-59
2022/09/17 11:22:32;;;;;;;5.60;1.00;;;14.90;60.60;;;;;;5070424;28;20714;-58
2022/09/17 11:25:19;;;;;;;3.00;1.10;;;14.80;60.50;;;;;;5076821;28;20044;-59
2022/09/17 11:27:53;;;;;;;4.85;1.17;;;14.60;61.00;;;;;;5074609;28;20052;-58
2022/09/17 11:30:23;;;;;;;4.43;1.10;;;14.50;62.40;;;;;;5083356;28;20048;-58
2022/09/17 11:33:00;;;;;;;3.30;1.10;;;14.50;63.60;;;;;;5076059;28;20036;-59
2022/09/17 11:35:34;;;;;;;2.63;1.00;;;14.50;63.30;;;;;;5078137;28;20036;-58
2022/09/17 11:38:25;;;;;;;3.05;1.00;;;14.50;64.70;;;;;;5074720;28;20033;-60
2022/09/17 11:41:09;;;;;;;3.35;0.85;;;14.70;64.70;;;;;;5076718;28;20080;-60
2022/09/17 11:43:39;;;;;;;3.85;0.80;;;14.90;65.90;;;;;;5069464;28;20044;-59
2022/09/17 11:46:21;;;;;;;1.58;0.77;;;15.10;66.20;;;;;;5087472;28;20037;-60
2022/09/17 11:49:07;;;;;;;3.03;1.20;;;15.40;65.40;;;;;;5082471;28;20051;-59
2022/09/17 11:51:38;;;;;;;7.90;1.67;;;15.60;64.10;;;;;;5074011;28;20048;-58
2022/09/17 11:54:06;;;;;;;5.22;1.33;;;15.80;63.50;;;;;;5086385;28;20056;-59
2022/09/17 11:56:45;;;;;;;4.18;1.08;;;15.90;63.20;;;;;;5090729;28;20073;-60
2022/09/17 11:59:19;;;;;;;3.17;1.10;;;16.00;62.90;;;;;;5101049;28;20099;-61
2022/09/17 12:01:51;;;;;;;7.35;1.60;;;16.20;62.70;;;;;;5088639;28;20028;-60
2022/09/17 12:04:39;;;;;;;5.05;1.40;;;16.40;61.80;;;;;;5084215;28;20070;-60
2022/09/17 12:07:20;;;;;;;4.68;1.15;;;16.60;60.50;;;;;;5081985;28;20037;-59
2022/09/17 12:09:52;;;;;;;4.43;1.20;;;16.70;58.50;;;;;;5076473;28;20036;-59
2022/09/17 12:12:22;;;;;;;5.75;1.60;;;16.70;58.70;;;;;;5080236;28;20063;-59
2022/09/17 12:14:50;;;;;;;5.30;1.30;;;16.70;58.80;;;;;;5067413;28;20021;-61
2022/09/17 12:17:42;;;;;;;3.88;1.27;;;16.60;58.30;;;;;;5083212;28;20392;-60
2022/09/17 12:20:27;;;;;;;7.05;1.80;;;16.50;58.40;;;;;;5067682;28;20033;-59
2022/09/17 12:22:54;;;;;;;7.78;1.75;;;16.40;58.90;;;;;;5075885;28;20031;-61
2022/09/17 12:25:22;;;;;;;6.47;1.48;;;16.20;59.00;;;;;;5073372;28;20441;-58
2022/09/17 12:28:22;;;;;;;4.45;1.40;;;16.00;58.80;;;;;;5084142;28;20021;-60
2022/09/17 12:31:10;;;;;;;1.67;0.68;;;15.80;59.50;;;;;;5040894;28;20049;-58
2022/09/17 12:33:46;;;;;;;2.15;0.70;;;15.60;59.40;;;;;;5023618;28;20052;-60
2022/09/17 12:36:30;;;;;;;2.92;1.02;;;15.40;60.10;;;;;;5027286;28;20037;-59
2022/09/17 12:39:11;;;;;;;1.70;1.02;;;15.30;60.20;;;;;;5024936;28;20038;-61
2022/09/17 12:42:01;;;;;;;3.05;0.80;;;15.10;60.60;;;;;;5051864;28;20043;-60
2022/09/17 12:44:55;;;;;;;4.10;0.98;;;15.00;60.60;;;;;;5008970;28;20040;-59
2022/09/17 12:47:54;;;;;;;2.53;0.90;;;14.90;60.60;;;;;;5006272;28;20038;-60
2022/09/17 12:50:32;;;;;;;1.40;0.77;;;14.80;60.30;;;;;;4937896;28;20782;-59
2022/09/17 12:53:22;;;;;;;3.97;0.60;;;14.60;60.50;;;;;;5034264;28;20517;-60
2022/09/17 12:55:47;;;;;;;1.05;0.50;;;14.40;60.80;;;;;;5031663;28;20042;-61
2022/09/17 12:58:35;;;;;;;1.75;0.63;;;14.30;60.80;;;;;;5038113;28;20037;-59
2022/09/17 13:01:06;;;;;;;2.33;0.60;;;14.10;60.70;;;;;;5040414;28;20136;-59
2022/09/17 13:03:43;;;;;;;1.33;0.70;;;14.00;61.00;;;;;;5037004;28;20052;-58
2022/09/17 13:06:14;;;;;;;3.50;1.23;;;13.90;61.50;;;;;;5044087;28;20538;-59
2022/09/17 13:09:05;;;;;;;1.90;0.90;;;13.70;61.50;;;;;;5091602;28;20039;-59
2022/09/17 13:11:36;;;;;;;2.83;1.10;;;13.70;62.60;;;;;;5071342;28;20044;-59
2022/09/17 13:14:26;;;;;;;1.67;0.70;;;13.70;62.80;;;;;;5085811;28;20073;-58
2022/09/17 13:16:58;;;;;;;2.95;0.90;;;13.70;62.80;;;;;;5068488;28;20028;-59